Etusivu
METAR-TAF:

METAR-TAF

Lentoasemat :

Luni

Sarzana, Italia

Leveyspiiri: 44-05N, Pituuspiiri: 009-59E, korkeus merenpinnasta: 9 m

Tämänhetkinen sää

Tämä raportti tehtiin 49 minuuttia sitten, kello 11.55 UTC
Tuuli 3 kn etelästä/kaakosta
Lämpötila 13°C
Kosteus 82%
Ilmanpaine 1022 hPa
Näkyvyys: 8000 m
Muutamia pilviä 1500 ft:n korkeudessa
Hajonneita pilviä 2500 ft:n korkeudessa

METAR: LIQW 241155Z 15003KT 8000 FEW015 BKN025 13/10 Q1022 RMK BKN VIS MIN 8000 WIND THR18 17004KT BLU

Aika: 13:44 (12:44 UTC)

Sääennuste

Tämä raportti tehtiin 1 tunti ja 44 minuuttia sitten, kello 11.00 UTC
Ennuste voimassa 24. päivästä klo 12 UTC - 24. päivään klo 21 UTC
Tuuli 3 kn eri suunnista
Näkyvyys: 8000 m
Hajonneita pilviä 2500 ft:n korkeudessa

TAF: LIQW 241100Z 2412/2421 VRB03KT 8000 BKN025

Säähavainnot ja -ennusteet yli 4000 lentoasemalta (METAR- ja TAF-raportit).

Käytössä olevat sääasemat on merkitty karttaan keltaisilla ja punaisilla pisteillä.

Aseta hiiri pisteen päälle nähdäksesi sääaseman nimen.

Klikkaa sitten nähdäksesi säähavainnot ja -ennusteet.

Kartan vaihtaminen: klikkaa mustalla rastilla varustettuja vihreitä pisteitä, niin voit zoomata sisään; viivalla varustettua vihreää pistettä, niin voit zoomata ulos tai vihreitä nuolia, niin pääset viereisille kartoille.


METAR-TAF: